1885 Tropical Storm NOT_NAMED (1885290N33330)


IBTrACS version v04r00. Visit IBTrACS website for data access.
Please direct all questions to the IBTrACS Q and A forum

Storm track - Intensity - Wind Radii - Intensity Data - Source Data - All data

Summary Information

Storm ID 1885290N33330
Start Oct 16 12Z
Max Intensity 40 kt (Oct 17 12Z)
End Oct 27 12Z
ATCF IDs
Track status Best track data.

Storm track plot

Map of storm track

Intensity plots

Map of storm track

Radial wind information

No radial wind information for this storm


Position and Intensity Table

BASIN ISO_TIME_________ NATURE LAT LON MLC WIND MLC PRES
degrees north degrees east kts mb
NA 1885-10-16 12:00:00 ET 33.00 -30.50 30 1005
NA 15:00:00 ET 32.61 -31.50 30
NA 18:00:00 ET 32.20 -32.50 30
NA 21:00:00 ET 31.76 -33.50 32
NA 1885-10-17 00:00:00 ET 31.30 -34.50 35
NA 03:00:00 ET 30.85 -35.50 35
NA 06:00:00 ET 30.40 -36.50 35
NA 09:00:00 ET 29.88 -37.76 37
NA 12:00:00 ET 29.50 -38.50 40 1003
NA 15:00:00 ET 29.47 -38.01 40
NA 18:00:00 ET 29.60 -37.00 40
NA 21:00:00 ET 29.70 -36.31 40
NA 1885-10-18 00:00:00 ET 29.80 -35.50 40
NA 03:00:00 ET 29.86 -34.40 40
NA 06:00:00 ET 29.90 -33.20 40
NA 09:00:00 ET 30.03 -31.86 40
NA 12:00:00 TS 30.00 -31.00 40 1005
NA 15:00:00 TS 29.54 -31.22 40
NA 18:00:00 TS 29.10 -31.90 40
NA 21:00:00 TS 29.16 -32.36 40
NA 1885-10-19 00:00:00 TS 29.30 -32.80 40
NA 03:00:00 TS 29.14 -33.20 40
NA 06:00:00 TS 28.90 -33.60 40
NA 09:00:00 TS 28.66 -34.07 40
NA 12:00:00 TS 28.50 -34.50 40 1005
NA 15:00:00 TS 28.51 -34.78 40
NA 18:00:00 TS 28.60 -35.00 40
NA 21:00:00 TS 28.66 -35.25 40
NA 1885-10-20 00:00:00 TS 28.70 -35.50 40
NA 03:00:00 TS 28.70 -35.75 40
NA 06:00:00 TS 28.70 -36.00 40
NA 09:00:00 TS 28.75 -36.29 40
NA 12:00:00 TS 28.80 -36.50 40 1005
NA 15:00:00 TS 28.81 -36.54 37
NA 18:00:00 TS 28.80 -36.50 35
NA 21:00:00 TS 28.80 -36.50 32
NA 1885-10-21 00:00:00 TS 28.80 -36.50 30
NA 03:00:00 TS 28.80 -36.50 30
NA 06:00:00 TS 28.80 -36.50 30
NA 09:00:00 TS 28.78 -36.51 30
NA 12:00:00 TS 28.80 -36.50 30
NA 15:00:00 TS 28.88 -36.42 30
NA 18:00:00 TS 29.00 -36.30 30
NA 21:00:00 TS 29.10 -36.15 30
NA 1885-10-22 00:00:00 TS 29.20 -36.00 30
NA 03:00:00 TS 29.31 -35.90 30
NA 06:00:00 TS 29.40 -35.80 30
NA 09:00:00 TS 29.48 -35.67 30
NA 12:00:00 TS 29.50 -35.50 30
NA 15:00:00 TS 29.41 -35.31 30
NA 18:00:00 TS 29.30 -35.10 30
NA 21:00:00 TS 29.24 -34.90 30
NA 1885-10-23 00:00:00 TS 29.20 -34.70 30
NA 03:00:00 TS 29.15 -34.49 30
NA 06:00:00 TS 29.10 -34.30 30
NA 09:00:00 TS 29.01 -34.08 30
NA 12:00:00 TS 29.00 -34.00 30 1009
NA 15:00:00 TS 29.16 -34.19 30
NA 18:00:00 TS 29.40 -34.50 30
NA 21:00:00 TS 29.60 -34.75 30
NA 1885-10-24 00:00:00 TS 29.80 -35.00 30
NA 03:00:00 TS 30.01 -35.25 30
NA 06:00:00 TS 30.20 -35.50 30
NA 09:00:00 TS 30.40 -35.80 30
NA 12:00:00 TS 30.50 -36.00 30
NA 15:00:00 TS 30.40 -35.94 30
NA 18:00:00 TS 30.20 -35.80 30
NA 21:00:00 TS 30.01 -35.74 30
NA 1885-10-25 00:00:00 TS 29.80 -35.70 30
NA 03:00:00 TS 29.60 -35.65 30
NA 06:00:00 TS 29.40 -35.60 30
NA 09:00:00 TS 29.18 -35.50 30
NA 12:00:00 TS 29.00 -35.50 30
NA 15:00:00 TS 28.88 -35.71 30
NA 18:00:00 TS 28.80 -36.00 30
NA 21:00:00 TS 28.74 -36.25 32
NA 1885-10-26 00:00:00 TS 28.70 -36.50 35
NA 03:00:00 TS 28.65 -36.75 35
NA 06:00:00 TS 28.60 -37.00 35
NA 09:00:00 TS 28.51 -37.35 35
NA 12:00:00 TS 28.50 -37.50 35
NA 15:00:00 TS 28.66 -37.19 32
NA 18:00:00 TS 28.90 -36.70 30
NA 21:00:00 TS 29.11 -36.35 30
NA 1885-10-27 00:00:00 TS 29.30 -36.00 30
NA 03:00:00 TS 29.45 -35.60 27
NA 06:00:00 TS 29.60 -35.20 25
NA 09:00:00 TS 29.79 -34.84 25
NA 12:00:00 TS 30.00 -34.50 25

Source Information

Agency Information
USA
TOKYO
CMA
HKO
NEWDELHI
REUNION
BOM
NADI
WELLINGTON
DS824
TD9636
TD9635
NEUMANN
MLC

All available IBTrACS Data

SEASON BASIN SUBBASIN ISO_TIME_________ NATURE LAT LON DIST2LAND LANDFALL IFLAG USA SSHS MLC LAT MLC LON MLC CLASS MLC WIND MLC PRES STORM SPEED STORM DIR
Year degrees north degrees east km km 1 degrees north degrees east kts mb kts degrees
1885 NA NA 1885-10-16 12:00:00 ET 33.00 -30.50 1408 1408 _____________O -1 33.00 -30.50 EX 30 1005 19 245
1885 NA NA 15:00:00 ET 32.61 -31.50 1484 1484 _____________P -1 32.61 -31.50 EX 30 19 245
1885 NA NA 18:00:00 ET 32.20 -32.50 1565 1565 _____________O -1 32.20 -32.50 EX 30 19 243
1885 NA NA 21:00:00 ET 31.76 -33.50 1650 1650 _____________P -1 31.76 -33.50 EX 32 19 242
1885 NA NA 1885-10-17 00:00:00 ET 31.30 -34.50 1736 1736 _____________O -1 31.30 -34.50 EX 35 19 242
1885 NA NA 03:00:00 ET 30.85 -35.50 1825 1825 _____________P -1 30.85 -35.50 EX 35 19 242
1885 NA NA 06:00:00 ET 30.40 -36.50 1918 1918 _____________O -1 30.40 -36.50 EX 35 22 244
1885 NA NA 09:00:00 ET 29.88 -37.76 2042 2042 _____________P -1 29.88 -37.76 EX 37 20 243
1885 NA NA 12:00:00 ET 29.50 -38.50 2110 2072 _____________O -1 29.50 -38.50 EX 40 1003 5 208
1885 NA NA 15:00:00 ET 29.47 -38.01 2062 1975 _____________P -1 29.47 -38.01 EX 40 13 86
1885 NA NA 18:00:00 ET 29.60 -37.00 1965 1898 _____________O -1 29.60 -37.00 EX 40 15 81
1885 NA NA 21:00:00 ET 29.70 -36.31 1898 1830 _____________P -1 29.70 -36.31 EX 40 13 81
1885 NA NA 1885-10-18 00:00:00 ET 29.80 -35.50 1821 1725 _____________O -1 29.80 -35.50 EX 40 17 84
1885 NA NA 03:00:00 ET 29.86 -34.40 1715 1609 _____________P -1 29.86 -34.40 EX 40 20 87
1885 NA NA 06:00:00 ET 29.90 -33.20 1599 1475 _____________O -1 29.90 -33.20 EX 40 22 86
1885 NA NA 09:00:00 ET 30.03 -31.86 1475 1389 _____________P -1 30.03 -31.86 EX 40 19 87
1885 NA NA 12:00:00 TS 30.00 -31.00 1389 1387 _____________O -1 30.00 -31.00 TS 40 1005 7 131
1885 NA NA 15:00:00 TS 29.54 -31.22 1405 1405 _____________P -1 29.54 -31.22 TS 40 12 221
1885 NA NA 18:00:00 TS 29.10 -31.90 1472 1472 _____________O -1 29.10 -31.90 TS 40 11 249
1885 NA NA 21:00:00 TS 29.16 -32.36 1521 1521 _____________P -1 29.16 -32.36 TS 40 8 284
1885 NA NA 1885-10-19 00:00:00 TS 29.30 -32.80 1559 1559 _____________O -1 29.30 -32.80 TS 40 7 269
1885 NA NA 03:00:00 TS 29.14 -33.20 1598 1598 _____________P -1 29.14 -33.20 TS 40 8 240
1885 NA NA 06:00:00 TS 28.90 -33.60 1638 1638 _____________O -1 28.90 -33.60 TS 40 9 238
1885 NA NA 09:00:00 TS 28.66 -34.07 1687 1687 _____________P -1 28.66 -34.07 TS 40 9 243
1885 NA NA 12:00:00 TS 28.50 -34.50 1727 1727 _____________O -1 28.50 -34.50 TS 40 1005 6 256
1885 NA NA 15:00:00 TS 28.51 -34.78 1757 1757 _____________P -1 28.51 -34.78 TS 40 5 283
1885 NA NA 18:00:00 TS 28.60 -35.00 1775 1775 _____________O -1 28.60 -35.00 TS 40 4 289
1885 NA NA 21:00:00 TS 28.66 -35.25 1794 1794 _____________P -1 28.66 -35.25 TS 40 4 283
1885 NA NA 1885-10-20 00:00:00 TS 28.70 -35.50 1823 1823 _____________O -1 28.70 -35.50 TS 40 4 276
1885 NA NA 03:00:00 TS 28.70 -35.75 1853 1853 _____________P -1 28.70 -35.75 TS 40 4 270
1885 NA NA 06:00:00 TS 28.70 -36.00 1872 1872 _____________O -1 28.70 -36.00 TS 40 5 276
1885 NA NA 09:00:00 TS 28.75 -36.29 1901 1901 _____________P -1 28.75 -36.29 TS 40 4 283
1885 NA NA 12:00:00 TS 28.80 -36.50 1920 1920 _____________O -1 28.80 -36.50 TS 40 1005 2 285
1885 NA NA 15:00:00 TS 28.81 -36.54 1920 1920 _____________P -1 28.81 -36.54 TS 37 0 0
1885 NA NA 18:00:00 TS 28.80 -36.50 1920 1920 _____________O -1 28.80 -36.50 TS 35 0 101
1885 NA NA 21:00:00 TS 28.80 -36.50 1920 1920 _____________P -1 28.80 -36.50 TS 32 0 0
1885 NA NA 1885-10-21 00:00:00 TS 28.80 -36.50 1920 1920 _____________O -1 28.80 -36.50 TD 30 0 0
1885 NA NA 03:00:00 TS 28.80 -36.50 1920 1920 _____________P -1 28.80 -36.50 TD 30 0 0
1885 NA NA 06:00:00 TS 28.80 -36.50 1920 1920 _____________O -1 28.80 -36.50 TD 30 0 0
1885 NA NA 09:00:00 TS 28.78 -36.51 1920 1920 _____________P -1 28.78 -36.51 TD 30 0 0
1885 NA NA 12:00:00 TS 28.80 -36.50 1920 1910 _____________O -1 28.80 -36.50 TD 30 1 37
1885 NA NA 15:00:00 TS 28.88 -36.42 1910 1899 _____________P -1 28.88 -36.42 TD 30 3 42
1885 NA NA 18:00:00 TS 29.00 -36.30 1899 1889 _____________O -1 29.00 -36.30 TD 30 3 48
1885 NA NA 21:00:00 TS 29.10 -36.15 1889 1870 _____________P -1 29.10 -36.15 TD 30 3 53
1885 NA NA 1885-10-22 00:00:00 TS 29.20 -36.00 1870 1860 _____________O -1 29.20 -36.00 TD 30 3 46
1885 NA NA 03:00:00 TS 29.31 -35.90 1860 1850 _____________P -1 29.31 -35.90 TD 30 3 41
1885 NA NA 06:00:00 TS 29.40 -35.80 1850 1840 _____________O -1 29.40 -35.80 TD 30 3 50
1885 NA NA 09:00:00 TS 29.48 -35.67 1840 1821 _____________P -1 29.48 -35.67 TD 30 3 69
1885 NA NA 12:00:00 TS 29.50 -35.50 1821 1801 _____________O -1 29.50 -35.50 TD 30 3 102
1885 NA NA 15:00:00 TS 29.41 -35.31 1801 1782 _____________P -1 29.41 -35.31 TD 30 4 120
1885 NA NA 18:00:00 TS 29.30 -35.10 1782 1763 _____________O -1 29.30 -35.10 TD 30 4 116
1885 NA NA 21:00:00 TS 29.24 -34.90 1763 1744 _____________P -1 29.24 -34.90 TD 30 4 106
1885 NA NA 1885-10-23 00:00:00 TS 29.20 -34.70 1744 1724 _____________O -1 29.20 -34.70 TD 30 4 105
1885 NA NA 03:00:00 TS 29.15 -34.49 1724 1705 _____________P -1 29.15 -34.49 TD 30 4 106
1885 NA NA 06:00:00 TS 29.10 -34.30 1705 1686 _____________O -1 29.10 -34.30 TD 30 4 111
1885 NA NA 09:00:00 TS 29.01 -34.08 1686 1676 _____________P -1 29.01 -34.08 TD 30 3 111
1885 NA NA 12:00:00 TS 29.00 -34.00 1676 1676 _____________O -1 29.00 -34.00 TD 30 1009 2 328
1885 NA NA 15:00:00 TS 29.16 -34.19 1695 1695 _____________P -1 29.16 -34.19 TD 30 6 312
1885 NA NA 18:00:00 TS 29.40 -34.50 1724 1724 _____________O -1 29.40 -34.50 TD 30 7 312
1885 NA NA 21:00:00 TS 29.60 -34.75 1753 1753 _____________P -1 29.60 -34.75 TD 30 6 313
1885 NA NA 1885-10-24 00:00:00 TS 29.80 -35.00 1772 1772 _____________O -1 29.80 -35.00 TD 30 6 313
1885 NA NA 03:00:00 TS 30.01 -35.25 1802 1802 _____________P -1 30.01 -35.25 TD 30 6 313
1885 NA NA 06:00:00 TS 30.20 -35.50 1822 1822 _____________O -1 30.20 -35.50 TD 30 6 310
1885 NA NA 09:00:00 TS 30.40 -35.80 1851 1851 _____________P -1 30.40 -35.80 TD 30 5 305
1885 NA NA 12:00:00 TS 30.50 -36.00 1871 1870 _____________O -1 30.50 -36.00 TD 30 1 270
1885 NA NA 15:00:00 TS 30.40 -35.94 1861 1850 _____________P -1 30.40 -35.94 TD 30 3 150
1885 NA NA 18:00:00 TS 30.20 -35.80 1850 1840 _____________O -1 30.20 -35.80 TD 30 4 156
1885 NA NA 21:00:00 TS 30.01 -35.74 1840 1840 _____________P -1 30.01 -35.74 TD 30 4 168
1885 NA NA 1885-10-25 00:00:00 TS 29.80 -35.70 1840 1840 _____________O -1 29.80 -35.70 TD 30 4 169
1885 NA NA 03:00:00 TS 29.60 -35.65 1840 1830 _____________P -1 29.60 -35.65 TD 30 4 168
1885 NA NA 06:00:00 TS 29.40 -35.60 1830 1821 _____________O -1 29.40 -35.60 TD 30 4 163
1885 NA NA 09:00:00 TS 29.18 -35.50 1821 1821 _____________P -1 29.18 -35.50 TD 30 4 168
1885 NA NA 12:00:00 TS 29.00 -35.50 1822 1822 _____________O -1 29.00 -35.50 TD 30 4 210
1885 NA NA 15:00:00 TS 28.88 -35.71 1842 1842 _____________P -1 28.88 -35.71 TD 30 5 245
1885 NA NA 18:00:00 TS 28.80 -36.00 1871 1871 _____________O -1 28.80 -36.00 TD 30 5 254
1885 NA NA 21:00:00 TS 28.74 -36.25 1891 1891 _____________P -1 28.74 -36.25 TD 32 4 257
1885 NA NA 1885-10-26 00:00:00 TS 28.70 -36.50 1921 1921 _____________O -1 28.70 -36.50 TS 35 4 258
1885 NA NA 03:00:00 TS 28.65 -36.75 1941 1941 _____________P -1 28.65 -36.75 TS 35 4 257
1885 NA NA 06:00:00 TS 28.60 -37.00 1970 1970 _____________O -1 28.60 -37.00 TS 35 5 255
1885 NA NA 09:00:00 TS 28.51 -37.35 2000 2000 _____________P -1 28.51 -37.35 TS 35 5 257
1885 NA NA 12:00:00 TS 28.50 -37.50 2019 1989 _____________O -1 28.50 -37.50 TS 35 2 42
1885 NA NA 15:00:00 TS 28.66 -37.19 1989 1939 _____________P -1 28.66 -37.19 TS 32 8 60
1885 NA NA 18:00:00 TS 28.90 -36.70 1939 1909 _____________O -1 28.90 -36.70 TD 30 9 59
1885 NA NA 21:00:00 TS 29.11 -36.35 1899 1869 _____________P -1 29.11 -36.35 TD 30 7 57
1885 NA NA 1885-10-27 00:00:00 TS 29.30 -36.00 1869 1830 _____________O -1 29.30 -36.00 TD 30 7 62
1885 NA NA 03:00:00 TS 29.45 -35.60 1830 1792 _____________P -1 29.45 -35.60 TD 27 8 67
1885 NA NA 06:00:00 TS 29.60 -35.20 1792 1763 _____________O -1 29.60 -35.20 TD 25 7 63
1885 NA NA 09:00:00 TS 29.79 -34.84 1753 1725 _____________P -1 29.79 -34.84 TD 25 7 57
1885 NA NA 12:00:00 TS 30.00 -34.50 1725 _____________O -1 30.00 -34.50 TD 25 7 54